sensor_id;sensor_type;location;lat;lon;timestamp;P1;P2;P0
49462;PMS5003;35357;51.722;0.500;2023-07-31T00:00:28;11;11;
49462;PMS5003;35357;51.722;0.500;2023-07-31T00:02:55;13;11;
49462;PMS5003;35357;51.722;0.500;2023-07-31T00:05:22;8;7;
49462;PMS5003;35357;51.722;0.500;2023-07-31T00:07:49;9;9;
49462;PMS5003;35357;51.722;0.500;2023-07-31T00:10:17;13;11;
49462;PMS5003;35357;51.722;0.500;2023-07-31T00:12:44;9;9;
49462;PMS5003;35357;51.722;0.500;2023-07-31T00:15:11;8;7;
49462;PMS5003;35357;51.722;0.500;2023-07-31T00:17:40;11;10;
49462;PMS5003;35357;51.722;0.500;2023-07-31T00:20:08;10;10;
49462;PMS5003;35357;51.722;0.500;2023-07-31T00:22:35;10;9;
49462;PMS5003;35357;51.722;0.500;2023-07-31T00:25:02;9;9;
49462;PMS5003;35357;51.722;0.500;2023-07-31T00:27:29;7;6;
49462;PMS5003;35357;51.722;0.500;2023-07-31T00:29:57;8;8;
49462;PMS5003;35357;51.722;0.500;2023-07-31T00:32:24;9;9;
49462;PMS5003;35357;51.722;0.500;2023-07-31T00:34:51;9;9;
49462;PMS5003;35357;51.722;0.500;2023-07-31T00:37:18;9;9;
49462;PMS5003;35357;51.722;0.500;2023-07-31T00:39:46;8;7;
49462;PMS5003;35357;51.722;0.500;2023-07-31T00:42:13;10;10;
49462;PMS5003;35357;51.722;0.500;2023-07-31T00:44:40;8;8;
49462;PMS5003;35357;51.722;0.500;2023-07-31T00:47:08;10;9;
49462;PMS5003;35357;51.722;0.500;2023-07-31T00:49:35;7;7;
49462;PMS5003;35357;51.722;0.500;2023-07-31T00:52:03;13;12;
49462;PMS5003;35357;51.722;0.500;2023-07-31T00:54:31;9;8;
49462;PMS5003;35357;51.722;0.500;2023-07-31T00:56:59;10;10;
49462;PMS5003;35357;51.722;0.500;2023-07-31T00:59:26;9;9;
49462;PMS5003;35357;51.722;0.500;2023-07-31T01:01:53;6;6;
49462;PMS5003;35357;51.722;0.500;2023-07-31T01:04:20;8;7;
49462;PMS5003;35357;51.722;0.500;2023-07-31T01:06:48;8;8;
49462;PMS5003;35357;51.722;0.500;2023-07-31T01:09:27;8;7;
49462;PMS5003;35357;51.722;0.500;2023-07-31T01:12:00;6;6;
49462;PMS5003;35357;51.722;0.500;2023-07-31T01:14:29;8;7;
49462;PMS5003;35357;51.722;0.500;2023-07-31T01:16:56;7;7;
49462;PMS5003;35357;51.722;0.500;2023-07-31T01:19:24;7;7;
49462;PMS5003;35357;51.722;0.500;2023-07-31T01:21:59;5;5;
49462;PMS5003;35357;51.722;0.500;2023-07-31T01:24:41;6;6;
49462;PMS5003;35357;51.722;0.500;2023-07-31T01:27:23;4;4;
49462;PMS5003;35357;51.722;0.500;2023-07-31T01:29:56;4;4;
49462;PMS5003;35357;51.722;0.500;2023-07-31T01:32:26;6;6;
49462;PMS5003;35357;51.722;0.500;2023-07-31T01:34:55;5;4;
49462;PMS5003;35357;51.722;0.500;2023-07-31T01:37:27;5;5;
49462;PMS5003;35357;51.722;0.500;2023-07-31T01:39:55;3;3;
49462;PMS5003;35357;51.722;0.500;2023-07-31T01:42:21;3;3;
49462;PMS5003;35357;51.722;0.500;2023-07-31T01:44:48;3;3;
49462;PMS5003;35357;51.722;0.500;2023-07-31T01:47:15;4;4;
49462;PMS5003;35357;51.722;0.500;2023-07-31T01:49:42;3;2;
49462;PMS5003;35357;51.722;0.500;2023-07-31T01:52:08;1;1;
49462;PMS5003;35357;51.722;0.500;2023-07-31T01:54:35;3;3;
49462;PMS5003;35357;51.722;0.500;2023-07-31T01:57:02;2;2;
49462;PMS5003;35357;51.722;0.500;2023-07-31T01:59:29;2;2;
49462;PMS5003;35357;51.722;0.500;2023-07-31T02:01:56;3;3;
49462;PMS5003;35357;51.722;0.500;2023-07-31T02:04:24;3;3;
49462;PMS5003;35357;51.722;0.500;2023-07-31T02:06:52;2;2;
49462;PMS5003;35357;51.722;0.500;2023-07-31T02:09:19;2;1;
49462;PMS5003;35357;51.722;0.500;2023-07-31T02:11:47;2;2;
49462;PMS5003;35357;51.722;0.500;2023-07-31T02:14:13;1;1;
49462;PMS5003;35357;51.722;0.500;2023-07-31T02:16:40;2;2;
49462;PMS5003;35357;51.722;0.500;2023-07-31T02:19:07;1;1;
49462;PMS5003;35357;51.722;0.500;2023-07-31T02:21:35;2;2;
49462;PMS5003;35357;51.722;0.500;2023-07-31T02:24:02;2;1;
49462;PMS5003;35357;51.722;0.500;2023-07-31T02:26:30;3;3;
49462;PMS5003;35357;51.722;0.500;2023-07-31T02:28:57;4;3;
49462;PMS5003;35357;51.722;0.500;2023-07-31T02:31:24;2;2;
49462;PMS5003;35357;51.722;0.500;2023-07-31T02:33:51;1;1;
49462;PMS5003;35357;51.722;0.500;2023-07-31T02:36:17;2;2;
49462;PMS5003;35357;51.722;0.500;2023-07-31T02:38:44;2;2;
49462;PMS5003;35357;51.722;0.500;2023-07-31T02:41:11;2;2;
49462;PMS5003;35357;51.722;0.500;2023-07-31T02:43:38;3;3;
49462;PMS5003;35357;51.722;0.500;2023-07-31T02:46:04;1;1;
49462;PMS5003;35357;51.722;0.500;2023-07-31T02:48:31;2;2;
49462;PMS5003;35357;51.722;0.500;2023-07-31T02:50:59;2;2;
49462;PMS5003;35357;51.722;0.500;2023-07-31T02:53:25;1;1;
49462;PMS5003;35357;51.722;0.500;2023-07-31T02:55:52;2;2;
49462;PMS5003;35357;51.722;0.500;2023-07-31T02:58:20;3;3;
49462;PMS5003;35357;51.722;0.500;2023-07-31T03:00:47;1;1;
49462;PMS5003;35357;51.722;0.500;2023-07-31T03:03:15;1;1;
49462;PMS5003;35357;51.722;0.500;2023-07-31T03:05:42;2;2;
49462;PMS5003;35357;51.722;0.500;2023-07-31T03:08:08;3;2;
49462;PMS5003;35357;51.722;0.500;2023-07-31T03:10:35;3;2;
49462;PMS5003;35357;51.722;0.500;2023-07-31T03:13:02;3;2;
49462;PMS5003;35357;51.722;0.500;2023-07-31T03:15:29;5;4;
49462;PMS5003;35357;51.722;0.500;2023-07-31T03:17:55;2;2;
49462;PMS5003;35357;51.722;0.500;2023-07-31T03:20:22;3;3;
49462;PMS5003;35357;51.722;0.500;2023-07-31T03:22:54;3;3;
49462;PMS5003;35357;51.722;0.500;2023-07-31T03:25:21;4;3;
49462;PMS5003;35357;51.722;0.500;2023-07-31T03:27:48;4;3;
49462;PMS5003;35357;51.722;0.500;2023-07-31T03:30:15;3;2;
49462;PMS5003;35357;51.722;0.500;2023-07-31T03:32:42;3;3;
49462;PMS5003;35357;51.722;0.500;2023-07-31T03:35:09;2;2;
49462;PMS5003;35357;51.722;0.500;2023-07-31T03:37:35;2;2;
49462;PMS5003;35357;51.722;0.500;2023-07-31T03:40:02;3;3;
49462;PMS5003;35357;51.722;0.500;2023-07-31T03:42:30;3;3;
49462;PMS5003;35357;51.722;0.500;2023-07-31T03:44:57;3;2;
49462;PMS5003;35357;51.722;0.500;2023-07-31T03:47:24;3;3;
49462;PMS5003;35357;51.722;0.500;2023-07-31T03:49:51;2;2;
49462;PMS5003;35357;51.722;0.500;2023-07-31T03:52:18;3;3;
49462;PMS5003;35357;51.722;0.500;2023-07-31T03:54:45;2;2;
49462;PMS5003;35357;51.722;0.500;2023-07-31T03:57:12;2;2;
49462;PMS5003;35357;51.722;0.500;2023-07-31T03:59:40;2;2;
49462;PMS5003;35357;51.722;0.500;2023-07-31T04:02:07;2;2;
49462;PMS5003;35357;51.722;0.500;2023-07-31T04:04:33;3;3;
49462;PMS5003;35357;51.722;0.500;2023-07-31T04:07:01;1;1;
49462;PMS5003;35357;51.722;0.500;2023-07-31T04:09:28;2;2;
49462;PMS5003;35357;51.722;0.500;2023-07-31T04:11:55;2;2;
49462;PMS5003;35357;51.722;0.500;2023-07-31T04:14:22;2;2;
49462;PMS5003;35357;51.722;0.500;2023-07-31T04:16:50;1;1;
49462;PMS5003;35357;51.722;0.500;2023-07-31T04:19:17;3;3;
49462;PMS5003;35357;51.722;0.500;2023-07-31T04:21:44;1;1;
49462;PMS5003;35357;51.722;0.500;2023-07-31T04:24:11;2;2;
49462;PMS5003;35357;51.722;0.500;2023-07-31T04:26:38;2;2;
49462;PMS5003;35357;51.722;0.500;2023-07-31T04:29:05;1;1;
49462;PMS5003;35357;51.722;0.500;2023-07-31T04:31:32;1;1;
49462;PMS5003;35357;51.722;0.500;2023-07-31T04:33:59;2;2;
49462;PMS5003;35357;51.722;0.500;2023-07-31T04:36:26;0;0;
49462;PMS5003;35357;51.722;0.500;2023-07-31T04:38:53;2;2;
49462;PMS5003;35357;51.722;0.500;2023-07-31T04:41:20;2;2;
49462;PMS5003;35357;51.722;0.500;2023-07-31T04:43:48;1;1;
49462;PMS5003;35357;51.722;0.500;2023-07-31T04:46:15;2;2;
49462;PMS5003;35357;51.722;0.500;2023-07-31T04:48:42;2;2;
49462;PMS5003;35357;51.722;0.500;2023-07-31T04:51:10;2;2;
49462;PMS5003;35357;51.722;0.500;2023-07-31T04:53:37;1;1;
49462;PMS5003;35357;51.722;0.500;2023-07-31T04:56:04;1;1;
49462;PMS5003;35357;51.722;0.500;2023-07-31T04:58:31;1;1;
49462;PMS5003;35357;51.722;0.500;2023-07-31T05:00:57;1;1;
49462;PMS5003;35357;51.722;0.500;2023-07-31T05:03:24;2;1;
49462;PMS5003;35357;51.722;0.500;2023-07-31T05:05:51;1;1;
49462;PMS5003;35357;51.722;0.500;2023-07-31T05:08:18;1;1;
49462;PMS5003;35357;51.722;0.500;2023-07-31T05:10:44;1;0;
49462;PMS5003;35357;51.722;0.500;2023-07-31T05:13:12;1;1;
49462;PMS5003;35357;51.722;0.500;2023-07-31T05:15:39;1;1;
49462;PMS5003;35357;51.722;0.500;2023-07-31T05:18:07;2;2;
49462;PMS5003;35357;51.722;0.500;2023-07-31T05:20:34;0;0;
49462;PMS5003;35357;51.722;0.500;2023-07-31T05:23:01;1;1;
49462;PMS5003;35357;51.722;0.500;2023-07-31T05:25:28;2;2;
49462;PMS5003;35357;51.722;0.500;2023-07-31T05:27:55;1;1;
49462;PMS5003;35357;51.722;0.500;2023-07-31T05:30:22;1;1;
49462;PMS5003;35357;51.722;0.500;2023-07-31T05:32:49;3;3;
49462;PMS5003;35357;51.722;0.500;2023-07-31T05:35:17;3;2;
49462;PMS5003;35357;51.722;0.500;2023-07-31T05:37:43;2;2;
49462;PMS5003;35357;51.722;0.500;2023-07-31T05:40:10;1;1;
49462;PMS5003;35357;51.722;0.500;2023-07-31T05:42:38;2;2;
49462;PMS5003;35357;51.722;0.500;2023-07-31T05:45:05;2;1;
49462;PMS5003;35357;51.722;0.500;2023-07-31T05:47:33;1;1;
49462;PMS5003;35357;51.722;0.500;2023-07-31T05:50:00;1;1;
49462;PMS5003;35357;51.722;0.500;2023-07-31T05:52:27;2;2;
49462;PMS5003;35357;51.722;0.500;2023-07-31T05:54:54;2;2;
49462;PMS5003;35357;51.722;0.500;2023-07-31T05:57:21;2;1;
49462;PMS5003;35357;51.722;0.500;2023-07-31T05:59:49;1;1;
49462;PMS5003;35357;51.722;0.500;2023-07-31T06:02:16;1;1;
49462;PMS5003;35357;51.722;0.500;2023-07-31T06:04:43;2;2;
49462;PMS5003;35357;51.722;0.500;2023-07-31T06:07:10;0;0;
49462;PMS5003;35357;51.722;0.500;2023-07-31T06:09:38;3;2;
49462;PMS5003;35357;51.722;0.500;2023-07-31T06:12:05;1;1;
49462;PMS5003;35357;51.722;0.500;2023-07-31T06:14:32;1;1;
49462;PMS5003;35357;51.722;0.500;2023-07-31T06:16:59;2;1;
49462;PMS5003;35357;51.722;0.500;2023-07-31T06:19:25;2;2;
49462;PMS5003;35357;51.722;0.500;2023-07-31T06:21:53;2;1;
49462;PMS5003;35357;51.722;0.500;2023-07-31T06:24:21;2;1;
49462;PMS5003;35357;51.722;0.500;2023-07-31T06:26:48;1;1;
49462;PMS5003;35357;51.722;0.500;2023-07-31T06:29:16;1;1;
49462;PMS5003;35357;51.722;0.500;2023-07-31T06:31:42;1;1;
49462;PMS5003;35357;51.722;0.500;2023-07-31T06:34:09;1;1;
49462;PMS5003;35357;51.722;0.500;2023-07-31T06:36:36;1;1;
49462;PMS5003;35357;51.722;0.500;2023-07-31T06:39:02;2;2;
49462;PMS5003;35357;51.722;0.500;2023-07-31T06:41:30;0;0;
49462;PMS5003;35357;51.722;0.500;2023-07-31T06:43:57;1;1;
49462;PMS5003;35357;51.722;0.500;2023-07-31T06:46:23;1;1;
49462;PMS5003;35357;51.722;0.500;2023-07-31T06:48:50;1;1;
49462;PMS5003;35357;51.722;0.500;2023-07-31T06:51:17;0;0;
49462;PMS5003;35357;51.722;0.500;2023-07-31T06:53:44;1;1;
49462;PMS5003;35357;51.722;0.500;2023-07-31T06:56:10;1;1;
49462;PMS5003;35357;51.722;0.500;2023-07-31T06:58:38;1;1;
49462;PMS5003;35357;51.722;0.500;2023-07-31T07:01:05;1;1;
49462;PMS5003;35357;51.722;0.500;2023-07-31T07:03:32;1;1;
49462;PMS5003;35357;51.722;0.500;2023-07-31T07:06:00;0;0;
49462;PMS5003;35357;51.722;0.500;2023-07-31T07:08:27;1;1;
49462;PMS5003;35357;51.722;0.500;2023-07-31T07:10:54;1;1;
49462;PMS5003;35357;51.722;0.500;2023-07-31T07:13:21;0;0;
49462;PMS5003;35357;51.722;0.500;2023-07-31T07:15:48;0;0;
49462;PMS5003;35357;51.722;0.500;2023-07-31T07:18:16;0;0;
49462;PMS5003;35357;51.722;0.500;2023-07-31T07:20:46;0;0;
49462;PMS5003;35357;51.722;0.500;2023-07-31T07:23:17;0;0;
49462;PMS5003;35357;51.722;0.500;2023-07-31T07:25:45;0;0;
49462;PMS5003;35357;51.722;0.500;2023-07-31T07:28:13;0;0;
49462;PMS5003;35357;51.722;0.500;2023-07-31T07:30:40;0;0;
49462;PMS5003;35357;51.722;0.500;2023-07-31T07:33:07;1;1;
49462;PMS5003;35357;51.722;0.500;2023-07-31T07:35:34;2;2;
49462;PMS5003;35357;51.722;0.500;2023-07-31T07:38:01;0;0;
49462;PMS5003;35357;51.722;0.500;2023-07-31T07:40:28;3;3;
49462;PMS5003;35357;51.722;0.500;2023-07-31T07:42:55;0;0;
49462;PMS5003;35357;51.722;0.500;2023-07-31T07:45:21;2;2;
49462;PMS5003;35357;51.722;0.500;2023-07-31T07:47:48;1;1;
49462;PMS5003;35357;51.722;0.500;2023-07-31T07:50:16;0;0;
49462;PMS5003;35357;51.722;0.500;2023-07-31T07:52:43;2;2;
49462;PMS5003;35357;51.722;0.500;2023-07-31T07:55:10;2;1;
49462;PMS5003;35357;51.722;0.500;2023-07-31T07:57:37;3;2;
49462;PMS5003;35357;51.722;0.500;2023-07-31T08:00:04;1;1;
49462;PMS5003;35357;51.722;0.500;2023-07-31T08:02:32;0;0;
49462;PMS5003;35357;51.722;0.500;2023-07-31T08:04:59;0;0;
49462;PMS5003;35357;51.722;0.500;2023-07-31T08:07:25;1;1;
49462;PMS5003;35357;51.722;0.500;2023-07-31T08:09:53;1;1;
49462;PMS5003;35357;51.722;0.500;2023-07-31T08:12:21;0;0;
49462;PMS5003;35357;51.722;0.500;2023-07-31T08:14:48;0;0;
49462;PMS5003;35357;51.722;0.500;2023-07-31T08:17:16;1;1;
49462;PMS5003;35357;51.722;0.500;2023-07-31T08:19:42;0;0;
49462;PMS5003;35357;51.722;0.500;2023-07-31T08:22:10;3;1;
49462;PMS5003;35357;51.722;0.500;2023-07-31T08:24:37;0;0;
49462;PMS5003;35357;51.722;0.500;2023-07-31T08:27:05;0;0;
49462;PMS5003;35357;51.722;0.500;2023-07-31T08:29:33;0;0;
49462;PMS5003;35357;51.722;0.500;2023-07-31T08:32:00;0;0;
49462;PMS5003;35357;51.722;0.500;2023-07-31T08:34:27;0;0;
49462;PMS5003;35357;51.722;0.500;2023-07-31T08:36:53;0;0;
49462;PMS5003;35357;51.722;0.500;2023-07-31T08:39:21;0;0;
49462;PMS5003;35357;51.722;0.500;2023-07-31T08:41:48;0;0;
49462;PMS5003;35357;51.722;0.500;2023-07-31T08:44:15;0;0;
49462;PMS5003;35357;51.722;0.500;2023-07-31T08:46:43;0;0;
49462;PMS5003;35357;51.722;0.500;2023-07-31T08:49:12;1;1;
49462;PMS5003;35357;51.722;0.500;2023-07-31T08:51:39;1;1;
49462;PMS5003;35357;51.722;0.500;2023-07-31T08:54:08;0;0;
49462;PMS5003;35357;51.722;0.500;2023-07-31T08:56:35;0;0;
49462;PMS5003;35357;51.722;0.500;2023-07-31T08:59:03;1;1;
49462;PMS5003;35357;51.722;0.500;2023-07-31T09:01:30;1;1;
49462;PMS5003;35357;51.722;0.500;2023-07-31T09:04:01;1;1;
49462;PMS5003;35357;51.722;0.500;2023-07-31T09:06:31;1;0;
49462;PMS5003;35357;51.722;0.500;2023-07-31T09:08:59;0;0;
49462;PMS5003;35357;51.722;0.500;2023-07-31T09:11:27;0;0;
49462;PMS5003;35357;51.722;0.500;2023-07-31T09:13:54;2;0;
49462;PMS5003;35357;51.722;0.500;2023-07-31T09:16:27;0;0;
49462;PMS5003;35357;51.722;0.500;2023-07-31T09:18:55;0;0;
49462;PMS5003;35357;51.722;0.500;2023-07-31T09:21:22;1;1;
49462;PMS5003;35357;51.722;0.500;2023-07-31T09:23:50;1;1;
49462;PMS5003;35357;51.722;0.500;2023-07-31T09:26:28;0;0;
49462;PMS5003;35357;51.722;0.500;2023-07-31T09:28:56;0;0;
49462;PMS5003;35357;51.722;0.500;2023-07-31T09:31:32;0;0;
49462;PMS5003;35357;51.722;0.500;2023-07-31T09:34:00;0;0;
49462;PMS5003;35357;51.722;0.500;2023-07-31T09:36:28;1;1;
49462;PMS5003;35357;51.722;0.500;2023-07-31T09:38:56;0;0;
49462;PMS5003;35357;51.722;0.500;2023-07-31T09:41:29;1;1;
49462;PMS5003;35357;51.722;0.500;2023-07-31T09:43:56;2;2;
49462;PMS5003;35357;51.722;0.500;2023-07-31T09:46:23;1;1;
49462;PMS5003;35357;51.722;0.500;2023-07-31T09:49:03;1;1;
49462;PMS5003;35357;51.722;0.500;2023-07-31T09:49:06;0;0;
49462;PMS5003;35357;51.722;0.500;2023-07-31T09:51:34;2;2;
49462;PMS5003;35357;51.722;0.500;2023-07-31T09:54:02;3;2;
49462;PMS5003;35357;51.722;0.500;2023-07-31T09:56:29;0;0;
49462;PMS5003;35357;51.722;0.500;2023-07-31T09:58:58;1;1;
49462;PMS5003;35357;51.722;0.500;2023-07-31T10:01:26;0;0;
49462;PMS5003;35357;51.722;0.500;2023-07-31T10:03:53;1;0;
49462;PMS5003;35357;51.722;0.500;2023-07-31T10:06:22;1;1;
49462;PMS5003;35357;51.722;0.500;2023-07-31T10:08:49;2;2;
49462;PMS5003;35357;51.722;0.500;2023-07-31T10:11:19;1;1;
49462;PMS5003;35357;51.722;0.500;2023-07-31T10:13:46;1;1;
49462;PMS5003;35357;51.722;0.500;2023-07-31T10:16:14;2;2;
49462;PMS5003;35357;51.722;0.500;2023-07-31T10:18:42;1;1;
49462;PMS5003;35357;51.722;0.500;2023-07-31T10:21:10;2;2;
49462;PMS5003;35357;51.722;0.500;2023-07-31T10:23:38;3;3;
49462;PMS5003;35357;51.722;0.500;2023-07-31T10:26:07;2;2;
49462;PMS5003;35357;51.722;0.500;2023-07-31T10:28:35;3;3;
49462;PMS5003;35357;51.722;0.500;2023-07-31T10:31:03;2;2;
49462;PMS5003;35357;51.722;0.500;2023-07-31T10:33:32;2;2;
49462;PMS5003;35357;51.722;0.500;2023-07-31T10:36:17;1;1;
49462;PMS5003;35357;51.722;0.500;2023-07-31T10:38:46;3;3;
49462;PMS5003;35357;51.722;0.500;2023-07-31T10:41:15;2;2;
49462;PMS5003;35357;51.722;0.500;2023-07-31T10:43:44;3;3;
49462;PMS5003;35357;51.722;0.500;2023-07-31T10:46:12;3;2;
49462;PMS5003;35357;51.722;0.500;2023-07-31T10:48:41;3;3;
49462;PMS5003;35357;51.722;0.500;2023-07-31T10:51:09;2;2;
49462;PMS5003;35357;51.722;0.500;2023-07-31T10:53:38;2;2;
49462;PMS5003;35357;51.722;0.500;2023-07-31T10:56:06;2;2;
49462;PMS5003;35357;51.722;0.500;2023-07-31T10:58:34;2;2;
49462;PMS5003;35357;51.722;0.500;2023-07-31T11:01:03;2;2;
49462;PMS5003;35357;51.722;0.500;2023-07-31T11:03:47;2;2;
49462;PMS5003;35357;51.722;0.500;2023-07-31T11:06:16;3;3;
49462;PMS5003;35357;51.722;0.500;2023-07-31T11:08:43;2;1;
49462;PMS5003;35357;51.722;0.500;2023-07-31T11:11:12;1;1;
49462;PMS5003;35357;51.722;0.500;2023-07-31T11:13:42;3;3;
49462;PMS5003;35357;51.722;0.500;2023-07-31T11:16:11;3;2;
49462;PMS5003;35357;51.722;0.500;2023-07-31T11:18:39;3;2;
49462;PMS5003;35357;51.722;0.500;2023-07-31T11:21:07;3;2;
49462;PMS5003;35357;51.722;0.500;2023-07-31T11:23:36;2;2;
49462;PMS5003;35357;51.722;0.500;2023-07-31T11:26:04;3;3;
49462;PMS5003;35357;51.722;0.500;2023-07-31T11:28:33;2;2;
49462;PMS5003;35357;51.722;0.500;2023-07-31T11:31:01;2;2;
49462;PMS5003;35357;51.722;0.500;2023-07-31T11:33:28;1;1;
49462;PMS5003;35357;51.722;0.500;2023-07-31T11:35:56;1;1;
49462;PMS5003;35357;51.722;0.500;2023-07-31T11:38:24;2;2;
49462;PMS5003;35357;51.722;0.500;2023-07-31T11:40:52;1;1;
49462;PMS5003;35357;51.722;0.500;2023-07-31T11:43:20;2;2;
49462;PMS5003;35357;51.722;0.500;2023-07-31T11:45:49;1;1;
49462;PMS5003;35357;51.722;0.500;2023-07-31T11:48:18;2;1;
49462;PMS5003;35357;51.722;0.500;2023-07-31T11:50:47;2;2;
49462;PMS5003;35357;51.722;0.500;2023-07-31T11:53:17;1;1;
49462;PMS5003;35357;51.722;0.500;2023-07-31T11:55:47;1;1;
49462;PMS5003;35357;51.722;0.500;2023-07-31T11:58:15;1;1;
49462;PMS5003;35357;51.722;0.500;2023-07-31T12:00:44;1;1;
49462;PMS5003;35357;51.722;0.500;2023-07-31T12:03:13;1;1;
49462;PMS5003;35357;51.722;0.500;2023-07-31T12:05:40;2;2;
49462;PMS5003;35357;51.722;0.500;2023-07-31T12:08:10;3;3;
49462;PMS5003;35357;51.722;0.500;2023-07-31T12:10:38;3;2;
49462;PMS5003;35357;51.722;0.500;2023-07-31T12:13:08;2;2;
49462;PMS5003;35357;51.722;0.500;2023-07-31T12:15:37;2;2;
49462;PMS5003;35357;51.722;0.500;2023-07-31T12:18:05;2;2;
49462;PMS5003;35357;51.722;0.500;2023-07-31T12:20:33;4;4;
49462;PMS5003;35357;51.722;0.500;2023-07-31T12:23:01;3;3;
49462;PMS5003;35357;51.722;0.500;2023-07-31T12:25:29;2;2;
49462;PMS5003;35357;51.722;0.500;2023-07-31T12:27:57;3;3;
49462;PMS5003;35357;51.722;0.500;2023-07-31T12:30:26;4;3;
49462;PMS5003;35357;51.722;0.500;2023-07-31T12:32:54;2;2;
49462;PMS5003;35357;51.722;0.500;2023-07-31T12:35:21;5;5;
49462;PMS5003;35357;51.722;0.500;2023-07-31T12:37:49;2;2;
49462;PMS5003;35357;51.722;0.500;2023-07-31T12:40:16;2;1;
49462;PMS5003;35357;51.722;0.500;2023-07-31T12:42:43;2;2;
49462;PMS5003;35357;51.722;0.500;2023-07-31T12:45:10;3;3;
49462;PMS5003;35357;51.722;0.500;2023-07-31T12:47:37;2;2;
49462;PMS5003;35357;51.722;0.500;2023-07-31T12:50:04;4;3;
49462;PMS5003;35357;51.722;0.500;2023-07-31T12:52:32;2;2;
49462;PMS5003;35357;51.722;0.500;2023-07-31T12:54:58;4;4;
49462;PMS5003;35357;51.722;0.500;2023-07-31T12:57:25;4;4;
49462;PMS5003;35357;51.722;0.500;2023-07-31T12:59:52;3;3;
49462;PMS5003;35357;51.722;0.500;2023-07-31T13:02:19;3;3;
49462;PMS5003;35357;51.722;0.500;2023-07-31T13:04:45;3;3;
49462;PMS5003;35357;51.722;0.500;2023-07-31T13:07:12;3;2;
49462;PMS5003;35357;51.722;0.500;2023-07-31T13:09:39;3;3;
49462;PMS5003;35357;51.722;0.500;2023-07-31T13:12:06;3;3;
49462;PMS5003;35357;51.722;0.500;2023-07-31T13:14:34;4;4;
49462;PMS5003;35357;51.722;0.500;2023-07-31T13:17:00;6;5;
49462;PMS5003;35357;51.722;0.500;2023-07-31T13:19:28;4;4;
49462;PMS5003;35357;51.722;0.500;2023-07-31T13:21:55;4;4;
49462;PMS5003;35357;51.722;0.500;2023-07-31T13:24:21;5;5;
49462;PMS5003;35357;51.722;0.500;2023-07-31T13:26:48;5;5;
49462;PMS5003;35357;51.722;0.500;2023-07-31T13:29:15;5;5;
49462;PMS5003;35357;51.722;0.500;2023-07-31T13:31:42;5;5;
49462;PMS5003;35357;51.722;0.500;2023-07-31T13:34:08;5;5;
49462;PMS5003;35357;51.722;0.500;2023-07-31T13:36:35;5;5;
49462;PMS5003;35357;51.722;0.500;2023-07-31T13:39:02;4;4;
49462;PMS5003;35357;51.722;0.500;2023-07-31T13:41:29;5;5;
49462;PMS5003;35357;51.722;0.500;2023-07-31T13:43:56;3;3;
49462;PMS5003;35357;51.722;0.500;2023-07-31T13:46:23;4;4;
49462;PMS5003;35357;51.722;0.500;2023-07-31T13:48:49;7;6;
49462;PMS5003;35357;51.722;0.500;2023-07-31T13:51:16;6;5;
49462;PMS5003;35357;51.722;0.500;2023-07-31T13:53:43;6;5;
49462;PMS5003;35357;51.722;0.500;2023-07-31T13:56:10;5;5;
49462;PMS5003;35357;51.722;0.500;2023-07-31T13:58:37;5;5;
49462;PMS5003;35357;51.722;0.500;2023-07-31T14:01:04;4;4;
49462;PMS5003;35357;51.722;0.500;2023-07-31T14:03:31;6;6;
49462;PMS5003;35357;51.722;0.500;2023-07-31T14:05:58;7;7;
49462;PMS5003;35357;51.722;0.500;2023-07-31T14:08:25;7;6;
49462;PMS5003;35357;51.722;0.500;2023-07-31T14:10:51;7;6;
49462;PMS5003;35357;51.722;0.500;2023-07-31T14:13:18;7;7;
49462;PMS5003;35357;51.722;0.500;2023-07-31T14:15:46;6;6;
49462;PMS5003;35357;51.722;0.500;2023-07-31T14:18:13;5;5;
49462;PMS5003;35357;51.722;0.500;2023-07-31T14:20:40;6;5;
49462;PMS5003;35357;51.722;0.500;2023-07-31T14:23:07;6;5;
49462;PMS5003;35357;51.722;0.500;2023-07-31T14:25:33;5;5;
49462;PMS5003;35357;51.722;0.500;2023-07-31T14:28:00;6;6;
49462;PMS5003;35357;51.722;0.500;2023-07-31T14:30:27;9;9;
49462;PMS5003;35357;51.722;0.500;2023-07-31T14:32:55;6;6;
49462;PMS5003;35357;51.722;0.500;2023-07-31T14:35:22;5;5;
49462;PMS5003;35357;51.722;0.500;2023-07-31T14:37:49;6;6;
49462;PMS5003;35357;51.722;0.500;2023-07-31T14:40:16;5;5;
49462;PMS5003;35357;51.722;0.500;2023-07-31T14:42:43;7;7;
49462;PMS5003;35357;51.722;0.500;2023-07-31T14:45:10;9;8;
49462;PMS5003;35357;51.722;0.500;2023-07-31T14:47:38;8;7;
49462;PMS5003;35357;51.722;0.500;2023-07-31T14:50:05;6;6;
49462;PMS5003;35357;51.722;0.500;2023-07-31T14:52:33;7;6;
49462;PMS5003;35357;51.722;0.500;2023-07-31T14:55:00;6;6;
49462;PMS5003;35357;51.722;0.500;2023-07-31T14:57:28;7;7;
49462;PMS5003;35357;51.722;0.500;2023-07-31T14:59:55;5;5;
49462;PMS5003;35357;51.722;0.500;2023-07-31T15:02:22;8;8;
49462;PMS5003;35357;51.722;0.500;2023-07-31T15:04:48;10;8;
49462;PMS5003;35357;51.722;0.500;2023-07-31T15:07:15;6;6;
49462;PMS5003;35357;51.722;0.500;2023-07-31T15:09:42;8;8;
49462;PMS5003;35357;51.722;0.500;2023-07-31T15:12:08;7;7;
49462;PMS5003;35357;51.722;0.500;2023-07-31T15:14:36;9;9;
49462;PMS5003;35357;51.722;0.500;2023-07-31T15:17:03;6;6;
49462;PMS5003;35357;51.722;0.500;2023-07-31T15:19:30;7;7;
49462;PMS5003;35357;51.722;0.500;2023-07-31T15:21:57;8;8;
49462;PMS5003;35357;51.722;0.500;2023-07-31T15:24:25;9;8;
49462;PMS5003;35357;51.722;0.500;2023-07-31T15:26:52;6;6;
49462;PMS5003;35357;51.722;0.500;2023-07-31T15:29:19;7;7;
49462;PMS5003;35357;51.722;0.500;2023-07-31T15:31:46;5;5;
49462;PMS5003;35357;51.722;0.500;2023-07-31T15:34:13;8;8;
49462;PMS5003;35357;51.722;0.500;2023-07-31T15:36:41;6;6;
49462;PMS5003;35357;51.722;0.500;2023-07-31T15:39:08;8;7;
49462;PMS5003;35357;51.722;0.500;2023-07-31T15:41:36;9;9;
49462;PMS5003;35357;51.722;0.500;2023-07-31T15:44:04;7;5;
49462;PMS5003;35357;51.722;0.500;2023-07-31T15:46:31;7;6;
49462;PMS5003;35357;51.722;0.500;2023-07-31T15:48:59;6;6;
49462;PMS5003;35357;51.722;0.500;2023-07-31T15:51:26;8;7;
49462;PMS5003;35357;51.722;0.500;2023-07-31T15:53:54;6;6;
49462;PMS5003;35357;51.722;0.500;2023-07-31T15:56:21;7;7;
49462;PMS5003;35357;51.722;0.500;2023-07-31T15:58:48;8;7;
49462;PMS5003;35357;51.722;0.500;2023-07-31T16:01:15;6;6;
49462;PMS5003;35357;51.722;0.500;2023-07-31T16:03:42;7;7;
49462;PMS5003;35357;51.722;0.500;2023-07-31T16:06:08;6;6;
49462;PMS5003;35357;51.722;0.500;2023-07-31T16:08:35;6;6;
49462;PMS5003;35357;51.722;0.500;2023-07-31T16:11:02;8;7;
49462;PMS5003;35357;51.722;0.500;2023-07-31T16:13:29;7;6;
49462;PMS5003;35357;51.722;0.500;2023-07-31T16:15:56;4;3;
49462;PMS5003;35357;51.722;0.500;2023-07-31T16:18:23;5;5;
49462;PMS5003;35357;51.722;0.500;2023-07-31T16:20:49;6;6;
49462;PMS5003;35357;51.722;0.500;2023-07-31T16:23:16;5;5;
49462;PMS5003;35357;51.722;0.500;2023-07-31T16:25:43;7;4;
49462;PMS5003;35357;51.722;0.500;2023-07-31T16:28:09;5;5;
49462;PMS5003;35357;51.722;0.500;2023-07-31T16:30:36;4;4;
49462;PMS5003;35357;51.722;0.500;2023-07-31T16:33:03;4;4;
49462;PMS5003;35357;51.722;0.500;2023-07-31T16:35:30;6;5;
49462;PMS5003;35357;51.722;0.500;2023-07-31T16:37:57;5;5;
49462;PMS5003;35357;51.722;0.500;2023-07-31T16:40:24;7;6;
49462;PMS5003;35357;51.722;0.500;2023-07-31T16:42:51;6;6;
49462;PMS5003;35357;51.722;0.500;2023-07-31T16:45:18;5;5;
49462;PMS5003;35357;51.722;0.500;2023-07-31T16:47:45;5;5;
49462;PMS5003;35357;51.722;0.500;2023-07-31T16:50:12;6;6;